RJTR(METAR)
04/26 15:58
METAR RJTR 260658Z AUTO 00000KT 7SM BKN005 OVC010 11/09 A2966 RMK AO2
SLP046=
戻る
トップページへ戻る
IMOC Co,.Ltd.